Time;durP1;ratioP1;P1;durP2;ratioP2;P2;SDS_P1;SDS_P2;PMS_P1;PMS_P2;Temp;Humidity;BMP_temperature;BMP_pressure;BME280_temperature;BME280_humidity;BME280_pressure;Samples;Min_cycle;Max_cycle;Signal;HPM_P1;HPM_P2
2022/06/19 00:01:58;;;;;;;5.60;0.80;;;17.50;95.80;;;;;;5070704;28;20045;-79
2022/06/19 00:04:23;;;;;;;4.85;0.80;;;17.50;96.00;;;;;;5088968;28;20031;-78
2022/06/19 00:06:50;;;;;;;1.85;0.82;;;17.50;96.20;;;;;;5088496;28;20024;-78
2022/06/19 00:09:16;;;;;;;1.58;0.75;;;17.50;96.30;;;;;;5070353;28;20028;-78
2022/06/19 00:11:41;;;;;;;3.40;1.05;;;17.50;96.50;;;;;;5071083;28;20467;-79
2022/06/19 00:14:08;;;;;;;2.75;1.00;;;17.50;96.60;;;;;;5070396;28;20111;-78
2022/06/19 00:16:35;;;;;;;2.28;0.65;;;17.50;96.80;;;;;;5088821;28;20020;-79
2022/06/19 00:19:01;;;;;;;2.78;0.70;;;17.40;96.80;;;;;;5070624;28;20031;-78
2022/06/19 00:21:28;;;;;;;5.75;1.00;;;17.40;97.10;;;;;;5070352;28;20028;-81
2022/06/19 00:23:53;;;;;;;2.85;0.95;;;17.40;97.30;;;;;;5087858;28;20032;-81
2022/06/19 00:26:20;;;;;;;1.55;0.73;;;17.40;97.40;;;;;;5069207;28;20031;-82
2022/06/19 00:28:47;;;;;;;2.15;0.77;;;17.40;97.30;;;;;;5087828;28;20484;-80
2022/06/19 00:31:13;;;;;;;1.35;0.57;;;17.40;97.50;;;;;;5069967;28;20073;-81
2022/06/19 00:33:39;;;;;;;5.47;0.80;;;17.40;97.70;;;;;;5069792;28;20028;-81
2022/06/19 00:36:05;;;;;;;1.52;0.93;;;17.40;97.90;;;;;;5069288;28;20323;-79
2022/06/19 00:38:32;;;;;;;2.08;0.80;;;17.30;98.00;;;;;;5069578;28;20032;-81
2022/06/19 00:40:59;;;;;;;5.15;0.75;;;17.30;98.30;;;;;;5087503;28;20111;-80
2022/06/19 00:43:26;;;;;;;2.53;0.80;;;17.30;98.50;;;;;;5069088;28;20063;-81
2022/06/19 00:45:53;;;;;;;1.13;0.52;;;17.30;98.60;;;;;;5069398;28;20028;-80
2022/06/19 00:48:29;;;;;;;7.15;1.10;;;17.30;98.70;;;;;;5087620;28;20032;-80
2022/06/19 00:50:55;;;;;;;1.67;0.70;;;17.30;98.80;;;;;;5069241;28;20430;-80
2022/06/19 00:53:28;;;;;;;3.00;1.10;;;17.20;98.90;;;;;;5069410;28;20035;-82
2022/06/19 00:55:54;;;;;;;1.35;0.60;;;17.20;99.20;;;;;;5069723;28;20569;-82
2022/06/19 00:58:30;;;;;;;3.63;1.05;;;17.20;99.30;;;;;;5069248;28;20036;-82
2022/06/19 01:01:00;;;;;;;1.65;0.90;;;17.20;99.50;;;;;;5087575;28;20024;-82
2022/06/19 01:03:33;;;;;;;3.67;0.88;;;17.20;99.60;;;;;;5069576;28;20413;-81
2022/06/19 01:05:58;;;;;;;1.92;0.70;;;17.20;99.50;;;;;;5087278;28;20102;-82
2022/06/19 01:08:24;;;;;;;1.75;0.50;;;17.10;99.50;;;;;;5087286;28;20103;-81
2022/06/19 01:10:52;;;;;;;1.45;0.63;;;17.10;99.50;;;;;;5087275;28;20047;-82
2022/06/19 01:13:20;;;;;;;3.38;0.82;;;17.10;99.40;;;;;;5087175;28;20042;-81
2022/06/19 01:15:48;;;;;;;3.15;0.98;;;17.10;99.40;;;;;;5069222;28;20067;-81
2022/06/19 01:18:13;;;;;;;8.20;0.73;;;17.10;99.50;;;;;;5069041;28;20026;-81
2022/06/19 01:20:41;;;;;;;1.73;0.55;;;17.10;99.70;;;;;;5086685;28;20027;-81
2022/06/19 01:23:28;;;;;;;3.22;0.75;;;17.10;99.50;;;;;;5086944;28;20036;-80
2022/06/19 01:25:54;;;;;;;2.45;1.10;;;17.20;99.60;;;;;;5087430;28;20020;-81
2022/06/19 01:31:10;;;;;;;1.70;0.93;;;17.10;99.90;;;;;;5086897;28;20062;-81
2022/06/19 01:33:42;;;;;;;1.80;0.80;;;17.00;99.90;;;;;;5068641;28;20032;-81
2022/06/19 01:36:10;;;;;;;0.90;0.60;;;17.00;99.90;;;;;;5086597;28;20043;-81
2022/06/19 01:38:37;;;;;;;1.90;0.88;;;17.00;99.90;;;;;;5086443;28;20123;-80
2022/06/19 01:41:10;;;;;;;5.88;1.05;;;17.00;99.90;;;;;;5087165;28;20499;-81
2022/06/19 01:43:36;;;;;;;4.85;0.98;;;17.00;99.90;;;;;;5086711;28;20043;-80
2022/06/19 01:46:04;;;;;;;1.88;0.80;;;16.90;99.90;;;;;;5088430;28;20028;-79
2022/06/19 01:48:31;;;;;;;3.00;1.00;;;17.00;99.90;;;;;;5086928;28;20487;-81
2022/06/19 01:50:58;;;;;;;1.65;0.60;;;16.90;99.90;;;;;;5068250;28;20594;-79
2022/06/19 01:53:32;;;;;;;1.55;0.70;;;16.90;99.90;;;;;;5086509;28;20028;-79
2022/06/19 01:55:58;;;;;;;3.85;0.82;;;16.90;99.90;;;;;;5086793;28;20053;-79
2022/06/19 01:58:26;;;;;;;1.48;0.52;;;16.90;99.90;;;;;;5069081;28;20480;-79
2022/06/19 02:00:52;;;;;;;2.72;0.60;;;16.90;99.90;;;;;;5087232;28;20020;-81
2022/06/19 02:03:50;;;;;;;0.80;0.50;;;16.90;99.90;;;;;;5068531;28;20588;-82
2022/06/19 02:06:19;;;;;;;5.82;0.70;;;16.90;99.90;;;;;;5068494;28;20070;-80
2022/06/19 02:08:46;;;;;;;1.67;0.70;;;16.90;99.90;;;;;;5068120;28;20051;-81
2022/06/19 02:11:13;;;;;;;1.58;0.70;;;16.90;99.90;;;;;;5068705;28;20031;-80
2022/06/19 02:13:40;;;;;;;2.22;0.50;;;16.80;99.90;;;;;;5086993;28;20051;-81
2022/06/19 02:16:11;;;;;;;6.35;0.70;;;16.80;99.90;;;;;;5068290;28;20028;-80
2022/06/19 02:18:40;;;;;;;3.55;0.85;;;16.80;99.90;;;;;;5086777;28;20023;-81
2022/06/19 02:21:08;;;;;;;2.20;0.60;;;16.80;99.90;;;;;;5086391;28;20520;-79
2022/06/19 02:23:38;;;;;;;2.25;0.70;;;16.80;99.90;;;;;;5086689;28;20047;-81
2022/06/19 02:26:09;;;;;;;4.57;1.38;;;16.80;99.90;;;;;;5068798;28;20047;-78
2022/06/19 02:28:36;;;;;;;5.03;0.80;;;16.80;99.90;;;;;;5067865;28;20101;-80
2022/06/19 02:31:03;;;;;;;2.65;0.70;;;16.80;99.90;;;;;;5067804;28;20059;-78
2022/06/19 02:33:33;;;;;;;4.63;0.95;;;16.80;99.90;;;;;;5067830;28;20039;-79
2022/06/19 02:35:58;;;;;;;3.53;0.60;;;16.90;99.90;;;;;;5068074;28;20101;-78
2022/06/19 02:38:24;;;;;;;1.67;0.73;;;16.90;99.90;;;;;;5067566;28;20454;-78
2022/06/19 02:41:17;;;;;;;6.75;0.70;;;16.80;99.90;;;;;;5086139;28;20028;-79
2022/06/19 02:43:43;;;;;;;2.47;0.70;;;16.80;99.90;;;;;;5086302;28;20032;-78
2022/06/19 02:46:08;;;;;;;1.70;0.60;;;16.80;99.90;;;;;;5067537;28;20081;-78
2022/06/19 02:48:34;;;;;;;;;;;16.80;99.90;;;;;;5069250;28;20506;-79
2022/06/19 02:51:03;;;;;;;1.65;0.63;;;16.80;99.90;;;;;;5089708;28;19907;-78
2022/06/19 02:53:29;;;;;;;1.30;0.63;;;16.80;99.90;;;;;;5071067;28;20028;-79
2022/06/19 02:55:55;;;;;;;3.75;0.90;;;16.80;99.90;;;;;;5089069;28;20051;-78
2022/06/19 02:58:24;;;;;;;1.52;0.73;;;16.80;99.90;;;;;;5090121;28;20024;-79
2022/06/19 03:00:51;;;;;;;5.70;0.55;;;16.90;99.90;;;;;;5089883;28;20020;-81
2022/06/19 03:03:27;;;;;;;3.35;1.00;;;16.90;99.90;;;;;;5071869;28;20093;-81
2022/06/19 03:05:53;;;;;;;2.70;0.93;;;16.90;99.90;;;;;;5083376;28;20024;-80
2022/06/19 03:08:19;;;;;;;2.67;0.70;;;16.90;99.90;;;;;;5072732;28;20036;-81
2022/06/19 03:10:45;;;;;;;2.67;0.90;;;16.90;99.90;;;;;;5069614;28;20081;-80
2022/06/19 03:13:11;;;;;;;;;;;16.90;99.90;;;;;;5068215;28;20515;-80
2022/06/19 03:15:36;;;;;;;1.65;0.70;;;17.00;99.90;;;;;;5076329;28;20331;-80
2022/06/19 03:18:03;;;;;;;1.77;0.70;;;17.00;99.90;;;;;;5087837;28;20123;-81
2022/06/19 03:20:29;;;;;;;4.13;0.68;;;17.00;99.90;;;;;;5068947;28;20392;-81
2022/06/19 03:22:54;;;;;;;1.65;0.73;;;17.00;99.90;;;;;;5066863;28;20039;-81
2022/06/19 03:25:21;;;;;;;2.03;0.60;;;17.10;99.90;;;;;;5071423;28;20024;-82
2022/06/19 03:27:48;;;;;;;4.32;0.90;;;17.10;99.90;;;;;;5071335;28;20024;-80
2022/06/19 03:30:15;;;;;;;5.30;0.70;;;17.10;99.90;;;;;;5089402;28;20040;-81
2022/06/19 03:32:41;;;;;;;7.57;0.80;;;17.20;99.90;;;;;;5089814;28;20026;-81
2022/06/19 03:35:08;;;;;;;4.40;1.48;;;17.20;99.90;;;;;;5088789;28;20045;-81
2022/06/19 03:37:34;;;;;;;2.28;0.90;;;17.30;99.90;;;;;;5089037;28;20035;-81
2022/06/19 03:40:00;;;;;;;2.10;0.82;;;17.30;99.90;;;;;;5070686;28;20404;-82
2022/06/19 03:42:25;;;;;;;1.92;0.82;;;17.40;99.90;;;;;;5070880;28;20044;-80
2022/06/19 03:44:51;;;;;;;4.07;0.90;;;17.50;99.90;;;;;;5071304;28;20028;-80
2022/06/19 03:47:25;;;;;;;2.03;0.70;;;17.50;99.90;;;;;;5070540;28;20028;-81
2022/06/19 03:49:50;;;;;;;1.55;0.73;;;17.60;99.90;;;;;;5070262;28;20020;-79
2022/06/19 03:52:17;;;;;;;5.82;1.10;;;17.70;99.90;;;;;;5072348;28;20087;-80
2022/06/19 03:54:42;;;;;;;2.05;0.90;;;17.80;99.90;;;;;;5079937;28;20480;-80
2022/06/19 03:57:12;;;;;;;4.25;0.90;;;17.90;99.90;;;;;;5081843;28;20032;-81
2022/06/19 03:59:38;;;;;;;1.83;0.90;;;18.00;99.90;;;;;;5076327;28;20162;-79
2022/06/19 04:02:04;;;;;;;5.78;1.17;;;18.10;99.90;;;;;;5061924;28;20042;-81
2022/06/19 04:04:30;;;;;;;2.13;0.50;;;18.30;99.80;;;;;;5070966;28;20059;-81
2022/06/19 04:06:56;;;;;;;1.98;0.60;;;18.60;99.30;;;;;;5071970;28;20036;-81
2022/06/19 04:09:22;;;;;;;2.83;0.80;;;18.90;98.80;;;;;;5073747;28;20499;-82
2022/06/19 04:11:47;;;;;;;1.83;0.80;;;19.20;98.00;;;;;;5075708;28;20040;-80
2022/06/19 04:14:15;;;;;;;4.20;0.80;;;19.60;97.10;;;;;;5085740;28;20051;-81
2022/06/19 04:16:42;;;;;;;2.25;1.00;;;19.90;96.30;;;;;;5087508;28;20028;-82
2022/06/19 04:19:09;;;;;;;2.60;1.15;;;20.20;95.60;;;;;;5078187;28;20500;-79
2022/06/19 04:21:44;;;;;;;1.67;0.73;;;20.40;94.90;;;;;;5055039;28;20412;-79
2022/06/19 04:24:12;;;;;;;4.22;1.25;;;20.50;94.40;;;;;;5047854;28;20082;-78
2022/06/19 04:26:39;;;;;;;2.88;0.90;;;20.60;94.10;;;;;;5071450;28;20044;-79
2022/06/19 04:29:05;;;;;;;2.40;0.80;;;20.80;93.70;;;;;;5079527;28;20036;-79
2022/06/19 04:31:31;;;;;;;3.03;0.80;;;21.00;93.50;;;;;;5056746;28;20084;-79
2022/06/19 04:33:57;;;;;;;1.52;0.70;;;21.10;93.50;;;;;;5075420;28;20064;-80
2022/06/19 04:36:25;;;;;;;1.65;0.73;;;21.30;93.00;;;;;;5059265;28;20040;-80
2022/06/19 04:38:54;;;;;;;2.72;0.80;;;21.50;92.60;;;;;;5055355;28;20040;-81
2022/06/19 04:41:31;;;;;;;5.07;0.80;;;21.70;92.10;;;;;;5068611;28;20543;-79
2022/06/19 04:43:59;;;;;;;2.47;0.85;;;21.80;91.80;;;;;;5066258;28;20059;-80
2022/06/19 04:46:26;;;;;;;7.18;0.82;;;22.00;91.50;;;;;;5064602;28;20040;-79
2022/06/19 04:48:52;;;;;;;2.67;0.75;;;22.00;91.20;;;;;;5055963;28;20459;-80
2022/06/19 04:51:18;;;;;;;1.48;0.60;;;22.00;90.80;;;;;;5064372;28;20032;-79
2022/06/19 04:53:45;;;;;;;1.73;0.80;;;22.20;90.60;;;;;;5065611;28;20064;-77
2022/06/19 04:56:12;;;;;;;1.75;1.00;;;22.20;90.10;;;;;;5053236;28;20127;-79
2022/06/19 04:58:39;;;;;;;5.38;1.02;;;22.30;89.80;;;;;;5067292;28;20545;-78
2022/06/19 05:01:15;;;;;;;3.17;0.88;;;22.40;89.20;;;;;;5066248;28;20493;-78
2022/06/19 05:03:41;;;;;;;2.22;0.80;;;22.60;88.20;;;;;;5053015;28;20032;-78
2022/06/19 05:06:06;;;;;;;1.80;0.77;;;22.70;87.00;;;;;;5065875;28;20047;-78
2022/06/19 05:08:32;;;;;;;2.50;0.80;;;22.80;86.40;;;;;;5054856;28;20519;-77
2022/06/19 05:10:59;;;;;;;2.25;0.68;;;23.00;85.30;;;;;;5065986;28;20060;-78
2022/06/19 05:13:25;;;;;;;2.17;0.80;;;23.20;84.10;;;;;;5052107;28;20103;-77
2022/06/19 05:16:08;;;;;;;2.47;0.73;;;23.30;82.70;;;;;;5046304;28;20040;-80
2022/06/19 05:18:34;;;;;;;4.60;0.93;;;23.60;81.10;;;;;;5046330;28;20043;-80
2022/06/19 05:21:01;;;;;;;2.33;0.80;;;23.70;81.00;;;;;;5066848;28;20025;-80
2022/06/19 05:23:31;;;;;;;2.28;0.77;;;23.90;81.50;;;;;;5048566;28;20047;-81
2022/06/19 05:26:18;;;;;;;2.17;0.85;;;24.00;82.40;;;;;;5066530;28;20071;-79
2022/06/19 05:28:45;;;;;;;4.35;0.68;;;24.10;82.50;;;;;;5048423;28;20489;-81
2022/06/19 05:31:11;;;;;;;1.48;0.80;;;24.20;81.70;;;;;;5066852;28;20527;-81
2022/06/19 05:33:37;;;;;;;10.77;0.90;;;24.20;80.80;;;;;;5066489;28;20045;-80
2022/06/19 05:36:03;;;;;;;2.92;1.23;;;24.30;78.90;;;;;;5066635;28;20020;-80
2022/06/19 05:38:29;;;;;;;3.08;0.95;;;24.40;78.30;;;;;;5048838;28;20035;-80
2022/06/19 05:40:57;;;;;;;2.55;1.05;;;24.60;77.20;;;;;;5048617;28;20468;-80
2022/06/19 05:43:24;;;;;;;2.65;0.80;;;24.80;77.40;;;;;;5066682;28;20044;-81
2022/06/19 05:46:02;;;;;;;7.07;1.27;;;25.10;76.50;;;;;;5048840;28;20115;-81
2022/06/19 05:48:30;;;;;;;3.13;0.63;;;26.00;72.90;;;;;;5047854;28;20028;-81
2022/06/19 05:51:01;;;;;;;4.43;1.17;;;26.70;70.20;;;;;;5065073;28;20056;-80
2022/06/19 05:53:29;;;;;;;3.38;0.95;;;27.10;67.40;;;;;;5066577;28;20107;-82
2022/06/19 05:55:54;;;;;;;1.48;0.75;;;27.50;65.30;;;;;;5066638;28;20024;-82
2022/06/19 05:58:20;;;;;;;2.78;0.98;;;28.70;60.90;;;;;;5066251;28;20123;-82
2022/06/19 06:00:46;;;;;;;3.15;0.90;;;30.20;55.30;;;;;;5048211;28;20032;-81
2022/06/19 06:03:16;;;;;;;1.77;0.95;;;31.70;49.30;;;;;;5066205;28;20064;-79
2022/06/19 06:05:43;;;;;;;4.15;0.90;;;33.10;45.30;;;;;;5065891;28;20021;-80
2022/06/19 06:08:09;;;;;;;2.25;0.93;;;34.20;41.50;;;;;;5048289;28;20064;-79
2022/06/19 06:10:35;;;;;;;6.57;1.00;;;35.00;39.30;;;;;;5048363;28;20028;-80
2022/06/19 06:13:01;;;;;;;2.88;0.80;;;35.90;36.70;;;;;;5048079;28;20029;-80
2022/06/19 06:15:26;;;;;;;1.85;1.00;;;36.50;35.20;;;;;;5047843;28;20029;-80
2022/06/19 06:17:52;;;;;;;5.32;0.80;;;37.10;34.30;;;;;;5048106;28;20040;-80
2022/06/19 06:20:18;;;;;;;2.40;0.90;;;37.40;33.70;;;;;;5065744;28;20370;-80
2022/06/19 06:22:44;;;;;;;6.40;1.02;;;37.90;31.90;;;;;;5047985;28;20131;-81
2022/06/19 06:25:11;;;;;;;5.63;0.90;;;38.00;31.50;;;;;;5052795;28;20030;-80
2022/06/19 06:27:37;;;;;;;3.72;0.90;;;38.40;30.60;;;;;;5069311;28;20040;-81
2022/06/19 06:30:03;;;;;;;6.15;1.15;;;38.60;30.70;;;;;;5070126;28;20052;-80
2022/06/19 06:32:29;;;;;;;3.80;1.27;;;38.50;30.50;;;;;;5051354;28;20028;-81
2022/06/19 06:34:54;;;;;;;3.03;1.20;;;38.70;29.90;;;;;;5070048;28;20405;-81
2022/06/19 06:37:20;;;;;;;5.45;0.90;;;39.00;29.10;;;;;;5070285;28;20031;-81
2022/06/19 06:39:46;;;;;;;2.42;0.77;;;39.00;28.40;;;;;;5069747;28;20036;-81
2022/06/19 06:42:12;;;;;;;2.97;1.13;;;39.10;28.50;;;;;;5070056;28;20111;-81
2022/06/19 06:44:38;;;;;;;5.57;0.75;;;38.90;27.80;;;;;;5069549;28;20078;-81
2022/06/19 06:47:04;;;;;;;2.55;1.15;;;38.90;28.10;;;;;;5070015;28;20410;-82
2022/06/19 06:49:30;;;;;;;3.78;0.90;;;39.20;28.20;;;;;;5051533;28;20028;-81
2022/06/19 06:51:55;;;;;;;6.20;0.77;;;39.20;27.90;;;;;;5051927;28;20478;-81
2022/06/19 06:54:21;;;;;;;5.32;0.80;;;39.20;27.30;;;;;;5051837;28;20127;-82
2022/06/19 06:56:47;;;;;;;3.53;1.00;;;39.00;27.10;;;;;;5069311;28;20789;-81
2022/06/19 06:59:12;;;;;;;2.08;0.90;;;39.00;27.40;;;;;;5070038;28;20605;-80
2022/06/19 07:01:38;;;;;;;2.97;1.10;;;39.20;26.80;;;;;;5069275;28;20032;-82
2022/06/19 07:04:04;;;;;;;3.28;0.80;;;39.30;26.60;;;;;;5069684;28;20031;-81
2022/06/19 07:06:31;;;;;;;1.85;0.90;;;39.30;26.90;;;;;;5069692;28;20033;-80
2022/06/19 07:08:58;;;;;;;7.05;1.25;;;39.50;26.50;;;;;;5069009;28;20538;-81
2022/06/19 07:11:39;;;;;;;2.90;0.80;;;39.40;26.70;;;;;;5051740;28;20094;-81
2022/06/19 07:14:05;;;;;;;5.53;1.00;;;39.50;26.90;;;;;;5051060;28;20558;-80
2022/06/19 07:16:31;;;;;;;1.35;0.70;;;39.30;26.40;;;;;;5069663;28;20031;-80
2022/06/19 07:18:57;;;;;;;4.35;1.08;;;39.40;26.50;;;;;;5050889;28;20062;-80
2022/06/19 07:21:23;;;;;;;5.28;1.05;;;39.30;26.60;;;;;;5069361;28;20519;-81
2022/06/19 07:23:49;;;;;;;5.47;0.95;;;39.20;26.00;;;;;;5069037;28;20616;-81
2022/06/19 07:26:17;;;;;;;4.80;0.93;;;39.00;26.30;;;;;;5069456;28;20107;-80
2022/06/19 07:28:43;;;;;;;4.53;0.90;;;39.00;26.20;;;;;;5051006;28;20031;-79
2022/06/19 07:31:10;;;;;;;1.98;0.80;;;38.70;26.30;;;;;;5068729;28;20040;-80
2022/06/19 07:33:37;;;;;;;2.03;0.60;;;38.50;26.40;;;;;;5068351;28;20055;-81
2022/06/19 07:36:04;;;;;;;1.40;0.77;;;38.80;26.60;;;;;;5068396;28;20033;-80
2022/06/19 07:38:30;;;;;;;2.75;0.68;;;38.80;26.70;;;;;;5068507;28;20051;-80
2022/06/19 07:40:56;;;;;;;1.85;0.65;;;38.60;26.80;;;;;;5068828;28;20672;-80
2022/06/19 07:43:21;;;;;;;11.27;0.80;;;38.80;26.70;;;;;;5050501;28;20450;-81
2022/06/19 07:45:47;;;;;;;1.23;0.98;;;38.60;26.80;;;;;;5070068;28;20031;-81
2022/06/19 07:50:57;;;;;;;5.97;1.13;;;38.60;27.00;;;;;;5068834;28;20598;-81
2022/06/19 07:53:23;;;;;;;1.77;0.90;;;38.40;27.40;;;;;;5068270;28;20048;-81
2022/06/19 07:55:48;;;;;;;2.38;1.65;;;38.10;27.10;;;;;;5068679;28;20029;-82
2022/06/19 07:58:14;;;;;;;1.92;0.80;;;37.80;27.70;;;;;;5050216;28;20106;-81
2022/06/19 08:00:40;;;;;;;4.00;0.88;;;37.60;28.20;;;;;;5068499;28;20036;-80
2022/06/19 08:03:06;;;;;;;2.75;1.10;;;37.90;27.30;;;;;;5050078;28;20081;-82
2022/06/19 08:05:35;;;;;;;3.53;1.02;;;37.90;27.10;;;;;;5068178;28;20025;-81
2022/06/19 08:08:03;;;;;;;4.43;0.75;;;37.90;26.70;;;;;;5068390;28;20081;-81
2022/06/19 08:10:34;;;;;;;2.10;0.75;;;38.10;26.10;;;;;;5068252;28;20036;-81
2022/06/19 08:13:00;;;;;;;3.92;0.80;;;38.30;26.10;;;;;;5068063;28;20028;-81
2022/06/19 08:15:26;;;;;;;2.63;0.93;;;38.20;26.20;;;;;;5050653;28;20084;-81
2022/06/19 08:17:52;;;;;;;3.78;0.93;;;38.30;26.10;;;;;;5050085;28;20037;-81
2022/06/19 08:20:20;;;;;;;1.92;0.93;;;38.20;26.20;;;;;;5068002;28;20385;-81
2022/06/19 08:22:45;;;;;;;3.13;1.02;;;38.40;26.00;;;;;;5067440;28;20040;-81
2022/06/19 08:25:14;;;;;;;2.55;0.80;;;38.30;26.50;;;;;;5050449;28;20033;-81
2022/06/19 08:27:42;;;;;;;1.50;0.80;;;38.30;26.40;;;;;;5051191;28;20039;-79
2022/06/19 08:30:12;;;;;;;2.30;1.10;;;38.40;25.80;;;;;;5050080;28;20048;-79
2022/06/19 08:32:38;;;;;;;3.40;0.80;;;38.30;25.90;;;;;;5067657;28;20033;-80
2022/06/19 08:35:04;;;;;;;3.58;1.02;;;38.40;26.00;;;;;;5067495;28;20025;-80
2022/06/19 08:37:32;;;;;;;5.38;1.00;;;38.40;25.90;;;;;;5067705;28;20044;-79
2022/06/19 08:39:58;;;;;;;3.38;1.00;;;38.40;25.90;;;;;;5049240;28;20028;-80
2022/06/19 08:42:35;;;;;;;2.03;0.85;;;38.40;26.70;;;;;;5067750;28;20037;-79
2022/06/19 08:45:21;;;;;;;2.08;0.90;;;38.30;26.60;;;;;;5067329;28;20042;-79
2022/06/19 08:47:59;;;;;;;2.22;0.80;;;38.30;26.40;;;;;;5066343;28;20031;-79
2022/06/19 08:50:40;;;;;;;2.13;0.88;;;38.10;26.80;;;;;;5067544;28;20089;-80
2022/06/19 08:53:28;;;;;;;9.68;1.00;;;38.00;26.60;;;;;;5049509;28;20029;-79
2022/06/19 08:56:08;;;;;;;2.22;0.85;;;38.50;26.90;;;;;;5049017;28;20021;-80
2022/06/19 08:58:41;;;;;;;3.33;1.00;;;38.30;26.60;;;;;;5067155;28;20558;-79
2022/06/19 09:01:41;;;;;;;1.08;0.70;;;38.50;26.30;;;;;;5066723;28;20094;-80
2022/06/19 09:07:21;;;;;;;1.27;0.85;;;38.00;25.40;;;;;;5067024;28;20094;-81
2022/06/19 09:10:11;;;;;;;8.00;0.80;;;37.90;25.90;;;;;;5049200;28;20056;-81
2022/06/19 09:12:39;;;;;;;5.78;0.90;;;38.10;25.90;;;;;;5066881;28;20077;-80
2022/06/19 09:15:25;;;;;;;1.48;0.80;;;38.00;25.80;;;;;;5067162;28;20063;-80
2022/06/19 09:17:56;;;;;;;3.50;1.13;;;38.00;26.10;;;;;;5066698;28;20051;-81
2022/06/19 09:20:41;;;;;;;1.52;0.88;;;38.20;26.10;;;;;;5066865;28;20021;-81
2022/06/19 09:23:25;;;;;;;1.67;1.00;;;38.20;26.00;;;;;;5067473;28;20029;-80
2022/06/19 09:26:15;;;;;;;1.40;0.80;;;38.30;26.00;;;;;;5048834;28;20028;-81
2022/06/19 09:28:58;;;;;;;5.15;0.90;;;38.30;25.70;;;;;;5066726;28;20036;-81
2022/06/19 09:31:35;;;;;;;2.45;0.93;;;38.30;25.30;;;;;;5066407;28;20056;-81
2022/06/19 09:34:24;;;;;;;1.90;0.80;;;38.00;24.70;;;;;;5066643;28;20029;-81
2022/06/19 09:37:00;;;;;;;2.13;0.70;;;38.20;24.70;;;;;;5052839;28;20110;-80
2022/06/19 09:39:33;;;;;;;4.63;0.90;;;38.30;25.20;;;;;;5066495;28;20024;-79
2022/06/19 09:42:08;;;;;;;2.85;0.77;;;38.20;25.40;;;;;;5066734;28;20036;-79
2022/06/19 09:45:00;;;;;;;2.00;0.80;;;38.10;25.60;;;;;;5066126;28;20027;-81
2022/06/19 09:47:59;;;;;;;4.00;1.00;;;38.10;25.50;;;;;;5048185;28;20120;-80
2022/06/19 09:50:35;;;;;;;14.95;1.55;;;38.30;25.60;;;;;;5066456;28;20183;-80
2022/06/19 09:53:06;;;;;;;1.63;0.88;;;38.40;25.50;;;;;;5066525;28;20520;-80
2022/06/19 09:55:42;;;;;;;2.42;0.75;;;38.50;25.60;;;;;;5066365;28;20067;-80
2022/06/19 09:58:20;;;;;;;1.88;0.88;;;38.50;25.80;;;;;;5065642;28;20393;-78
2022/06/19 10:00:50;;;;;;;1.05;0.60;;;38.30;25.90;;;;;;5066097;28;20520;-79
2022/06/19 10:03:38;;;;;;;3.80;0.80;;;38.10;26.70;;;;;;5047889;28;20119;-79
2022/06/19 10:06:09;;;;;;;3.25;0.80;;;37.60;26.60;;;;;;5066334;28;20025;-79
2022/06/19 10:08:45;;;;;;;7.57;1.27;;;36.80;27.80;;;;;;5065898;28;20082;-79
2022/06/19 10:11:16;;;;;;;2.03;0.70;;;36.20;27.40;;;;;;5066458;28;20033;-79
2022/06/19 10:14:01;;;;;;;2.58;0.88;;;35.60;28.20;;;;;;5048413;28;20083;-77
2022/06/19 10:16:59;;;;;;;3.80;1.08;;;35.30;28.90;;;;;;5065446;28;20713;-77
2022/06/19 10:19:46;;;;;;;8.00;0.73;;;34.90;28.90;;;;;;5047321;28;20116;-78
2022/06/19 10:22:42;;;;;;;2.03;0.60;;;34.50;29.80;;;;;;5066510;28;20573;-79
2022/06/19 10:25:08;;;;;;;;;;;34.30;29.70;;;;;;5066219;28;20040;-80
2022/06/19 10:27:33;;;;;;;;;;;34.10;30.20;;;;;;5048944;28;20321;-79
2022/06/19 10:30:04;;;;;;;2.37;0.70;;;33.80;29.40;;;;;;5065659;28;20396;-77
2022/06/19 10:32:49;;;;;;;1.40;0.77;;;33.80;29.30;;;;;;5065851;28;20563;-79
2022/06/19 10:35:37;;;;;;;2.60;0.70;;;33.80;29.40;;;;;;5048363;28;20062;-79
2022/06/19 10:38:26;;;;;;;2.67;0.80;;;33.50;29.90;;;;;;5068283;28;20382;-78
2022/06/19 10:44:28;;;;;;;7.13;0.90;;;33.00;30.00;;;;;;5067268;28;20070;-81
2022/06/19 10:47:39;;;;;;;2.97;0.80;;;32.90;30.40;;;;;;5065704;28;20075;-81
2022/06/19 10:50:23;;;;;;;2.97;0.90;;;32.90;30.20;;;;;;5027453;28;20060;-81
2022/06/19 10:53:10;;;;;;;4.10;1.00;;;32.70;30.70;;;;;;5065479;28;20033;-80
2022/06/19 10:56:00;;;;;;;2.65;0.90;;;32.70;30.50;;;;;;5047898;28;20035;-80
2022/06/19 10:58:29;;;;;;;2.03;0.70;;;32.70;31.70;;;;;;5047755;28;20584;-80
2022/06/19 11:01:01;;;;;;;1.98;0.80;;;32.60;31.10;;;;;;5065781;28;20051;-79
2022/06/19 11:06:46;;;;;;;2.45;0.95;;;32.70;31.10;;;;;;5065528;28;20088;-80
2022/06/19 11:09:19;;;;;;;6.45;0.90;;;32.70;30.80;;;;;;5047745;28;20029;-79
2022/06/19 11:11:48;;;;;;;2.97;0.70;;;32.70;30.70;;;;;;5051829;28;20489;-79
2022/06/19 11:14:38;;;;;;;3.53;1.10;;;32.60;30.90;;;;;;5069257;28;20040;-80
2022/06/19 11:17:07;;;;;;;4.13;0.93;;;32.60;31.20;;;;;;5069237;28;20029;-80
2022/06/19 11:19:40;;;;;;;5.65;0.68;;;32.60;31.00;;;;;;5051378;28;20039;-80
2022/06/19 11:22:26;;;;;;;3.58;0.70;;;32.70;31.00;;;;;;5051379;28;20029;-80
2022/06/19 11:24:53;;;;;;;2.53;0.52;;;32.60;31.10;;;;;;5051308;28;20036;-80
2022/06/19 11:27:23;;;;;;;1.63;0.70;;;32.50;31.00;;;;;;5051318;28;20059;-81
2022/06/19 11:29:51;;;;;;;3.55;0.95;;;32.50;31.10;;;;;;5068874;28;20138;-78
2022/06/19 11:32:26;;;;;;;3.13;0.80;;;32.60;30.80;;;;;;5050535;28;20043;-80
2022/06/19 11:35:00;;;;;;;4.15;0.60;;;32.60;30.90;;;;;;5047774;28;20036;-80
2022/06/19 11:37:33;;;;;;;2.17;0.82;;;32.60;30.40;;;;;;5050649;28;20032;-81
2022/06/19 11:39:59;;;;;;;1.73;0.70;;;32.60;31.10;;;;;;5069327;28;20521;-80
2022/06/19 11:42:36;;;;;;;3.10;0.60;;;32.60;30.80;;;;;;5051107;28;20024;-80
2022/06/19 11:45:14;;;;;;;3.78;0.73;;;32.60;31.00;;;;;;5050614;28;20056;-80
2022/06/19 11:47:42;;;;;;;3.90;0.70;;;32.70;31.00;;;;;;5051064;28;20083;-79
2022/06/19 11:50:21;;;;;;;4.80;0.90;;;32.60;30.60;;;;;;5050528;28;20024;-80
2022/06/19 11:52:52;;;;;;;3.47;0.70;;;32.60;30.40;;;;;;5068187;28;20039;-81
2022/06/19 11:55:40;;;;;;;1.90;0.65;;;32.60;31.00;;;;;;5050827;28;20041;-81
2022/06/19 11:58:21;;;;;;;3.63;1.13;;;32.60;31.00;;;;;;5069008;28;20303;-80
2022/06/19 12:00:55;;;;;;;6.43;1.08;;;32.60;30.50;;;;;;5050216;28;20099;-80
2022/06/19 12:03:53;;;;;;;3.28;0.90;;;32.30;30.50;;;;;;5068681;28;20028;-80
2022/06/19 12:06:35;;;;;;;5.30;0.90;;;32.20;31.40;;;;;;5049969;28;20500;-80
2022/06/19 12:09:03;;;;;;;4.63;0.95;;;32.30;32.00;;;;;;5050289;28;20420;-80
2022/06/19 12:11:39;;;;;;;4.15;0.70;;;32.50;32.00;;;;;;5050489;28;20032;-80
2022/06/19 12:14:10;;;;;;;2.78;0.70;;;32.60;31.30;;;;;;5068256;28;20033;-81
2022/06/19 12:16:36;;;;;;;4.10;0.80;;;32.60;31.60;;;;;;5068266;28;20023;-79
2022/06/19 12:19:24;;;;;;;2.30;0.80;;;32.60;31.80;;;;;;5068198;28;20032;-81
2022/06/19 12:22:00;;;;;;;3.15;1.10;;;32.70;32.30;;;;;;5067345;28;20028;-80
2022/06/19 12:24:50;;;;;;;2.00;0.75;;;32.70;31.10;;;;;;5050158;28;20047;-80
2022/06/19 12:27:19;;;;;;;3.83;0.73;;;32.80;31.60;;;;;;5050168;28;20449;-81
2022/06/19 12:29:55;;;;;;;6.55;1.05;;;32.90;31.40;;;;;;5045993;28;20509;-81
2022/06/19 12:32:49;;;;;;;5.15;1.33;;;32.90;31.00;;;;;;5066476;28;20024;-81
2022/06/19 12:35:35;;;;;;;2.17;0.70;;;32.90;32.00;;;;;;5050074;28;20032;-81
2022/06/19 12:38:03;;;;;;;3.17;0.80;;;32.80;31.10;;;;;;5067883;28;20020;-81
2022/06/19 12:40:42;;;;;;;3.05;0.95;;;32.70;30.40;;;;;;5066206;28;20378;-81
2022/06/19 12:43:30;;;;;;;4.25;0.85;;;32.70;31.60;;;;;;5067587;28;20111;-80
2022/06/19 12:45:58;;;;;;;5.63;0.70;;;32.70;31.50;;;;;;5067598;28;20228;-80
2022/06/19 12:48:48;;;;;;;6.55;0.90;;;32.70;31.50;;;;;;5049721;28;20287;-80
2022/06/19 12:51:29;;;;;;;3.38;1.15;;;32.80;31.40;;;;;;5049601;28;20487;-81
2022/06/19 12:54:20;;;;;;;4.40;1.10;;;32.80;31.30;;;;;;5067409;28;20401;-80
2022/06/19 12:56:52;;;;;;;1.95;0.90;;;32.70;31.10;;;;;;5045584;28;20119;-80
2022/06/19 12:59:47;;;;;;;1.67;0.70;;;32.80;31.10;;;;;;5067001;28;20075;-79
2022/06/19 13:02:21;;;;;;;3.53;1.02;;;32.80;31.40;;;;;;5066654;28;20025;-80
2022/06/19 13:04:56;;;;;;;4.25;0.80;;;32.70;31.50;;;;;;5066782;28;20103;-80
2022/06/19 13:08:00;;;;;;;7.07;1.25;;;32.60;31.40;;;;;;5067220;28;20037;-80
2022/06/19 13:10:51;;;;;;;1.85;1.10;;;32.50;31.30;;;;;;5065925;28;20123;-79
2022/06/19 13:13:40;;;;;;;1.90;0.80;;;32.50;31.60;;;;;;5067104;28;20143;-80
2022/06/19 13:16:18;;;;;;;6.10;1.08;;;32.60;31.20;;;;;;5048959;28;20037;-80
2022/06/19 13:19:08;;;;;;;5.22;1.00;;;32.40;31.60;;;;;;5066836;28;20024;-80
2022/06/19 13:21:46;;;;;;;1.83;0.60;;;32.40;31.60;;;;;;5065615;28;20024;-80
2022/06/19 13:24:54;;;;;;;1.42;0.70;;;32.40;31.40;;;;;;5065144;28;20093;-80
2022/06/19 13:27:39;;;;;;;4.03;0.77;;;32.40;31.50;;;;;;5048822;28;20028;-80